Time;durP1;ratioP1;P1;durP2;ratioP2;P2;SDS_P1;SDS_P2;PMS_P1;PMS_P2;Temp;Humidity;BMP_temperature;BMP_pressure;BME280_temperature;BME280_humidity;BME280_pressure;Samples;Min_cycle;Max_cycle;Signal;HPM_P1;HPM_P2
2023/03/15 00:01:32;;;;;;;6.50;1.55;;;;;;;1.07;100.00;101226.41;5094781;28;20089;-77
2023/03/15 00:03:57;;;;;;;3.55;1.73;;;;;;;1.08;100.00;101235.88;5094591;28;20459;-77
2023/03/15 00:06:23;;;;;;;7.78;1.88;;;;;;;1.10;100.00;101231.59;5094036;28;20032;-77
2023/03/15 00:08:48;;;;;;;4.68;1.70;;;;;;;1.10;100.00;101230.75;5094298;28;20027;-77
2023/03/15 00:11:17;;;;;;;5.30;2.00;;;;;;;1.10;100.00;101228.19;5084805;28;20020;-77
2023/03/15 00:13:44;;;;;;;4.68;2.13;;;;;;;1.14;100.00;101217.13;5089887;28;20536;-77
2023/03/15 00:16:10;;;;;;;4.47;2.30;;;;;;;1.18;100.00;101218.94;5094723;28;20024;-77
2023/03/15 00:18:35;;;;;;;4.43;2.08;;;;;;;1.13;100.00;101216.25;5093985;28;20027;-77
2023/03/15 00:21:00;;;;;;;5.70;1.92;;;;;;;1.21;100.00;101225.81;5075329;28;20038;-77
2023/03/15 00:23:26;;;;;;;6.47;2.20;;;;;;;1.21;100.00;101224.16;5085598;28;20035;-77
2023/03/15 00:25:52;;;;;;;6.80;2.50;;;;;;;1.16;100.00;101221.47;5087788;28;20035;-78
2023/03/15 00:28:17;;;;;;;9.25;2.15;;;;;;;1.19;100.00;101238.66;5093893;28;20027;-77
2023/03/15 00:30:43;;;;;;;5.05;1.83;;;;;;;1.18;100.00;101229.22;5069427;28;20036;-77
2023/03/15 00:33:12;;;;;;;5.88;2.00;;;;;;;1.26;100.00;101243.06;5093527;28;20069;-77
2023/03/15 00:35:39;;;;;;;5.80;1.85;;;;;;;1.31;100.00;101235.47;5090557;28;20051;-77
2023/03/15 00:38:04;;;;;;;4.68;2.40;;;;;;;1.34;100.00;101243.22;5086957;28;20126;-77
2023/03/15 00:40:29;;;;;;;8.30;2.58;;;;;;;1.31;100.00;101240.63;5082451;28;20124;-77
2023/03/15 00:42:56;;;;;;;6.63;2.55;;;;;;;1.31;100.00;101236.34;5081407;28;20115;-77
2023/03/15 00:45:22;;;;;;;9.15;2.75;;;;;;;1.42;100.00;101241.69;5086000;28;20020;-77
2023/03/15 00:47:48;;;;;;;6.85;2.22;;;;;;;1.45;100.00;101243.47;5078766;28;20064;-77
2023/03/15 00:50:14;;;;;;;6.45;2.78;;;;;;;1.44;100.00;101236.56;5075365;28;20028;-77
2023/03/15 00:52:41;;;;;;;12.55;2.35;;;;;;;1.51;100.00;101234.16;5083560;28;20072;-77
2023/03/15 00:55:12;;;;;;;9.82;2.30;;;;;;;1.50;100.00;101221.28;5092805;28;20172;-77
2023/03/15 00:57:37;;;;;;;9.98;2.75;;;;;;;1.50;100.00;101229.00;5084681;28;20368;-77
2023/03/15 01:00:03;;;;;;;4.57;2.88;;;;;;;1.54;100.00;101234.25;5093042;28;20030;-77
2023/03/15 01:02:30;;;;;;;7.25;2.78;;;;;;;1.54;100.00;101230.81;5092603;28;20463;-77
2023/03/15 01:04:55;;;;;;;9.95;3.22;;;;;;;1.54;100.00;101236.81;5086762;28;20025;-77
2023/03/15 01:07:20;;;;;;;9.48;2.90;;;;;;;1.58;100.00;101240.31;5079348;28;20358;-77
2023/03/15 01:09:46;;;;;;;12.45;3.97;;;;;;;1.62;100.00;101235.25;5080146;28;20028;-76
2023/03/15 01:12:11;;;;;;;13.43;3.97;;;;;;;1.62;100.00;101237.81;5090242;28;20028;-76
2023/03/15 01:14:37;;;;;;;8.18;3.63;;;;;;;1.57;100.00;101230.84;5093046;28;20032;-77
2023/03/15 01:17:03;;;;;;;11.55;5.53;;;;;;;1.60;100.00;101241.19;5092852;28;20142;-76
2023/03/15 01:19:28;;;;;;;13.77;5.93;;;;;;;1.59;100.00;101240.31;5093326;28;20527;-76
2023/03/15 01:21:53;;;;;;;15.07;7.50;;;;;;;1.58;100.00;101248.00;5085702;28;20476;-77
2023/03/15 01:24:19;;;;;;;22.17;9.40;;;;;;;1.54;100.00;101251.38;5092463;28;20103;-76
2023/03/15 01:26:44;;;;;;;19.98;10.70;;;;;;;1.51;100.00;101251.28;5093149;28;20028;-77
2023/03/15 01:29:10;;;;;;;25.88;12.55;;;;;;;1.45;100.00;101244.31;5078685;28;20028;-77
2023/03/15 01:31:36;;;;;;;27.60;12.73;;;;;;;1.50;100.00;101259.81;5092517;28;20054;-76
2023/03/15 01:34:01;;;;;;;23.25;14.07;;;;;;;1.47;100.00;101254.63;5064007;28;20033;-77
2023/03/15 01:36:26;;;;;;;21.20;13.85;;;;;;;1.45;100.00;101267.44;5078778;28;20036;-76
2023/03/15 01:38:53;;;;;;;25.55;16.58;;;;;;;1.42;100.00;101259.69;5085829;28;20016;-77
2023/03/15 01:41:19;;;;;;;22.90;15.93;;;;;;;1.39;100.00;101275.88;5092941;28;20034;-76
2023/03/15 01:43:47;;;;;;;28.75;17.23;;;;;;;1.35;100.00;101265.53;5091830;28;20020;-77
2023/03/15 01:46:22;;;;;;;30.60;18.23;;;;;;;1.30;100.00;101262.84;5072675;28;20067;-77
2023/03/15 01:48:47;;;;;;;28.05;17.52;;;;;;;1.38;100.00;101263.03;5066256;28;20057;-77
2023/03/15 01:51:29;;;;;;;29.48;18.88;;;;;;;1.33;100.00;101259.47;5066426;28;20029;-77
2023/03/15 01:54:05;;;;;;;31.35;18.73;;;;;;;1.38;100.00;101268.16;5066105;28;21332;-77
2023/03/15 01:56:32;;;;;;;33.42;20.25;;;;;;;1.35;100.00;101270.66;5067182;28;20073;-77
2023/03/15 01:58:59;;;;;;;37.90;20.77;;;;;;;1.34;100.00;101267.22;5078006;28;20422;-77
2023/03/15 02:01:25;;;;;;;28.98;19.75;;;;;;;1.31;100.00;101261.16;5078759;28;20035;-77
2023/03/15 02:03:58;;;;;;;38.58;22.02;;;;;;;1.30;100.00;101273.13;5074740;28;20353;-77
2023/03/15 02:06:24;;;;;;;37.30;22.53;;;;;;;1.30;100.00;101283.41;5082350;28;20054;-77
2023/03/15 02:08:58;;;;;;;35.25;21.13;;;;;;;1.20;100.00;101262.63;5073041;28;20329;-77
2023/03/15 02:11:26;;;;;;;36.80;21.55;;;;;;;1.29;100.00;101283.38;5067604;28;20021;-77
2023/03/15 02:13:52;;;;;;;35.83;20.23;;;;;;;1.25;100.00;101297.84;5070649;28;20035;-78
2023/03/15 02:16:19;;;;;;;35.72;23.30;;;;;;;1.26;100.00;101315.00;5086504;22;20131;-77
2023/03/15 02:18:44;;;;;;;34.90;21.25;;;;;;;1.24;100.00;101310.66;5077879;28;20020;-77
2023/03/15 02:21:28;;;;;;;38.92;22.17;;;;;;;1.20;100.00;101301.16;5112805;28;20069;-76
2023/03/15 02:24:06;;;;;;;35.00;20.80;;;;;;;1.15;100.00;101301.06;5112946;28;20023;-77
2023/03/15 02:26:43;;;;;;;34.03;20.35;;;;;;;1.16;100.00;101297.66;5103173;28;20371;-76
2023/03/15 02:29:09;;;;;;;37.80;20.45;;;;;;;1.20;100.00;101298.59;5094101;28;20036;-77
2023/03/15 02:31:36;;;;;;;35.55;21.25;;;;;;;1.21;100.00;101297.75;5112446;28;20051;-77
2023/03/15 02:34:05;;;;;;;34.95;21.25;;;;;;;1.15;100.00;101301.06;5083453;28;20464;-77
2023/03/15 02:36:31;;;;;;;34.63;20.75;;;;;;;1.18;100.00;101316.53;5112716;28;20042;-77
2023/03/15 02:38:56;;;;;;;36.25;21.15;;;;;;;1.16;100.00;101319.06;5112535;28;20028;-77
2023/03/15 02:41:39;;;;;;;32.65;19.63;;;;;;;1.15;100.00;101314.75;5097904;28;20045;-77
2023/03/15 02:44:12;;;;;;;37.13;21.25;;;;;;;1.08;100.00;101306.88;5113048;28;20031;-77
2023/03/15 02:46:38;;;;;;;30.10;18.60;;;;;;;1.09;100.00;101313.75;5100681;28;20078;-77
2023/03/15 02:49:07;;;;;;;31.90;18.02;;;;;;;1.04;100.00;101323.91;5103572;28;20024;-78
2023/03/15 02:51:33;;;;;;;31.45;18.52;;;;;;;0.97;100.00;101323.75;5107063;28;20019;-78
2023/03/15 02:53:58;;;;;;;27.75;17.33;;;;;;;0.90;100.00;101321.03;5112045;28;20027;-77
2023/03/15 02:56:23;;;;;;;29.58;17.20;;;;;;;0.81;100.00;101320.81;5112748;28;20161;-77
2023/03/15 02:58:49;;;;;;;28.42;17.05;;;;;;;0.81;100.00;101336.19;5112109;28;20023;-77
2023/03/15 03:01:15;;;;;;;28.92;17.33;;;;;;;0.74;100.00;101334.31;5094759;28;20029;-77
2023/03/15 03:03:43;;;;;;;29.35;16.20;;;;;;;0.72;100.00;101336.00;5091055;28;20016;-77
2023/03/15 03:06:09;;;;;;;28.48;16.50;;;;;;;0.66;100.00;101340.97;5096115;28;20030;-77
2023/03/15 03:08:35;;;;;;;27.92;16.13;;;;;;;0.64;100.00;101348.63;5111299;28;20360;-77
2023/03/15 03:11:00;;;;;;;30.35;16.70;;;;;;;0.58;100.00;101350.16;5096440;28;20026;-77
2023/03/15 03:13:26;;;;;;;33.90;16.55;;;;;;;0.62;100.00;101365.69;5098493;28;20471;-77
2023/03/15 03:15:57;;;;;;;28.77;17.02;;;;;;;0.62;100.00;101375.97;5096923;28;20024;-78
2023/03/15 03:18:23;;;;;;;29.80;16.38;;;;;;;0.64;100.00;101379.41;5101671;28;20486;-76
2023/03/15 03:20:49;;;;;;;32.10;17.10;;;;;;;0.61;100.00;101379.34;5092340;28;20430;-76
2023/03/15 03:23:14;;;;;;;30.42;17.33;;;;;;;0.57;100.00;101371.53;5101385;28;20019;-77
2023/03/15 03:25:39;;;;;;;29.58;16.25;;;;;;;0.57;100.00;101384.38;5103423;28;20063;-77
2023/03/15 03:28:05;;;;;;;29.40;16.52;;;;;;;0.54;100.00;101391.97;5105439;28;20023;-76
2023/03/15 03:30:30;;;;;;;31.90;16.25;;;;;;;0.46;100.00;101394.34;5101026;28;20024;-76
2023/03/15 03:32:58;;;;;;;28.90;15.25;;;;;;;0.38;100.00;101395.81;5100654;28;20027;-76
2023/03/15 03:35:23;;;;;;;27.83;14.95;;;;;;;0.33;100.00;101389.72;5092577;28;20028;-76
2023/03/15 03:37:52;;;;;;;32.47;15.63;;;;;;;0.26;100.00;101392.91;5110478;28;20034;-76
2023/03/15 03:40:17;;;;;;;26.63;14.77;;;;;;;0.18;100.00;101398.72;5100855;28;20019;-76
2023/03/15 03:42:42;;;;;;;26.33;14.77;;;;;;;0.10;100.00;101399.31;5108437;28;20047;-76
2023/03/15 03:45:08;;;;;;;26.42;14.60;;;;;;;-0.05;100.00;101394.63;5106406;28;20054;-76
2023/03/15 03:47:33;;;;;;;24.38;13.90;;;;;;;-0.04;100.00;101401.50;5110831;28;20061;-76
2023/03/15 03:49:59;;;;;;;27.52;14.68;;;;;;;-0.07;100.00;101403.97;5095823;28;20525;-76
2023/03/15 03:52:24;;;;;;;24.92;14.48;;;;;;;-0.12;100.00;101416.66;5097974;28;20036;-76
2023/03/15 03:54:49;;;;;;;28.38;14.65;;;;;;;-0.16;100.00;101412.28;5105248;28;20472;-76
2023/03/15 03:57:15;;;;;;;23.98;13.70;;;;;;;-0.18;100.00;101418.19;5112040;28;20028;-76
2023/03/15 03:59:40;;;;;;;33.25;15.40;;;;;;;-0.24;100.00;101412.03;5098392;28;20048;-76
2023/03/15 04:02:05;;;;;;;30.73;15.57;;;;;;;-0.27;100.00;101424.75;5112888;28;20059;-76
2023/03/15 04:04:31;;;;;;;23.00;13.88;;;;;;;-0.28;100.00;101427.28;5102058;28;20028;-76
2023/03/15 04:06:56;;;;;;;31.52;15.35;;;;;;;-0.35;100.00;101433.91;5101235;28;20110;-76
2023/03/15 04:09:23;;;;;;;27.58;14.30;;;;;;;-0.42;100.00;101439.69;5106355;28;20020;-76
2023/03/15 04:11:49;;;;;;;31.67;14.77;;;;;;;-0.41;100.00;101446.53;5104867;28;20039;-76
2023/03/15 04:14:14;;;;;;;28.65;14.98;;;;;;;-0.46;100.00;101458.31;5099907;28;20020;-76
2023/03/15 04:16:39;;;;;;;29.95;14.98;;;;;;;-0.51;100.00;101447.06;5090533;28;20036;-76
2023/03/15 04:19:06;;;;;;;25.88;13.85;;;;;;;-0.56;100.00;101448.59;5094469;28;20026;-76
2023/03/15 04:21:32;;;;;;;31.40;14.68;;;;;;;-0.57;100.00;101460.56;5093592;28;20136;-76
2023/03/15 04:24:00;;;;;;;32.47;15.30;;;;;;;-0.61;100.00;101462.97;5107414;28;20080;-76
2023/03/15 04:26:27;;;;;;;33.53;15.27;;;;;;;-0.62;100.00;101469.78;5104046;28;20114;-76
2023/03/15 04:28:54;;;;;;;36.33;15.45;;;;;;;-0.65;100.00;101468.84;5114807;28;20080;-76
2023/03/15 04:31:20;;;;;;;28.75;15.27;;;;;;;-0.66;100.00;101467.06;5103497;28;20027;-76
2023/03/15 04:33:46;;;;;;;28.85;15.15;;;;;;;-0.75;100.00;101465.97;5108116;28;20031;-76
2023/03/15 04:36:17;;;;;;;28.73;15.23;;;;;;;-0.78;100.00;101478.66;5084131;28;20081;-76
2023/03/15 04:38:46;;;;;;;26.42;13.65;;;;;;;-0.83;100.00;101475.06;5106024;28;20023;-76
2023/03/15 04:41:13;;;;;;;27.27;14.93;;;;;;;-0.84;100.00;101490.41;5103977;28;20027;-76
2023/03/15 04:43:38;;;;;;;27.85;14.75;;;;;;;-0.88;100.00;101481.75;5113770;28;20028;-76
2023/03/15 04:46:04;;;;;;;30.55;14.45;;;;;;;-0.92;100.00;101481.56;5110477;28;20075;-76
2023/03/15 04:48:29;;;;;;;29.33;15.05;;;;;;;-0.88;100.00;101493.66;5113705;28;20027;-76
2023/03/15 04:50:55;;;;;;;29.95;15.35;;;;;;;-0.91;100.00;101497.00;5114426;28;20031;-75
2023/03/15 04:53:20;;;;;;;29.50;15.10;;;;;;;-0.92;100.00;101497.78;5106254;28;20096;-76
2023/03/15 04:55:46;;;;;;;33.70;15.25;;;;;;;-0.96;100.00;101498.53;5101117;28;20410;-76
2023/03/15 04:58:11;;;;;;;32.00;15.23;;;;;;;-0.96;100.00;101506.19;5112545;28;20068;-76
2023/03/15 05:00:36;;;;;;;35.20;15.15;;;;;;;-1.04;100.00;101494.84;5112844;28;20528;-76
2023/03/15 05:03:02;;;;;;;29.33;14.35;;;;;;;-1.05;100.00;101496.50;5080945;28;20111;-76
2023/03/15 05:05:28;;;;;;;29.35;14.68;;;;;;;-1.00;100.00;101505.22;5114086;28;20044;-76
2023/03/15 05:07:54;;;;;;;29.20;14.35;;;;;;;-1.03;100.00;101504.25;5113284;28;20134;-76
2023/03/15 05:10:20;;;;;;;31.42;15.13;;;;;;;-1.03;100.00;101514.50;5096749;28;20103;-76
2023/03/15 05:12:45;;;;;;;26.90;14.50;;;;;;;-1.07;100.00;101521.19;5102013;28;20027;-76
2023/03/15 05:15:11;;;;;;;33.95;14.75;;;;;;;-1.09;100.00;101522.81;5107184;28;20398;-76
2023/03/15 05:17:36;;;;;;;28.58;14.65;;;;;;;-1.11;100.00;101518.47;5113066;28;20059;-76
2023/03/15 05:20:09;;;;;;;29.75;14.25;;;;;;;-1.14;100.00;101520.94;5105565;28;20032;-76
2023/03/15 05:22:34;;;;;;;30.25;14.35;;;;;;;-1.17;100.00;101526.81;5112639;28;20046;-76
2023/03/15 05:24:59;;;;;;;29.33;14.63;;;;;;;-1.24;100.00;101514.63;5113874;28;20459;-76
2023/03/15 05:27:25;;;;;;;31.88;14.32;;;;;;;-1.26;100.00;101524.78;5110234;28;20077;-76
2023/03/15 05:29:50;;;;;;;32.58;15.13;;;;;;;-1.25;100.00;101538.44;5101689;28;20518;-76
2023/03/15 05:32:15;;;;;;;28.38;13.60;;;;;;;-1.29;100.00;101531.50;5113225;28;20505;-76
2023/03/15 05:34:41;;;;;;;28.13;14.63;;;;;;;-1.35;100.00;101534.69;5111747;28;20110;-76
2023/03/15 05:37:07;;;;;;;28.48;14.10;;;;;;;-1.36;100.00;101545.75;5105599;28;20016;-76
2023/03/15 05:39:33;;;;;;;26.38;14.48;;;;;;;-1.38;100.00;101549.06;5084547;28;20030;-76
2023/03/15 05:41:59;;;;;;;25.60;13.55;;;;;;;-1.43;100.00;101538.66;5113473;28;20035;-76
2023/03/15 05:44:24;;;;;;;41.92;15.35;;;;;;;-1.44;100.00;101544.56;5095576;28;20031;-77
2023/03/15 05:46:49;;;;;;;30.15;15.00;;;;;;;-1.45;100.00;101550.53;5092633;28;20047;-76
2023/03/15 05:49:14;;;;;;;30.17;14.25;;;;;;;-1.49;100.00;101552.09;5107931;28;20094;-76
2023/03/15 05:51:40;;;;;;;30.58;14.40;;;;;;;-1.51;100.00;101551.16;5111065;28;20031;-76
2023/03/15 05:54:05;;;;;;;26.38;13.32;;;;;;;-1.50;100.00;101555.47;5092886;28;20032;-76
2023/03/15 05:56:31;;;;;;;29.48;14.50;;;;;;;-1.48;100.00;101561.50;5097331;28;20077;-76
2023/03/15 05:58:56;;;;;;;36.85;15.05;;;;;;;-1.51;100.00;101555.41;5112589;28;20140;-76
2023/03/15 06:01:21;;;;;;;28.63;13.80;;;;;;;-1.44;100.00;101568.50;5110402;28;20039;-76
2023/03/15 06:03:47;;;;;;;33.53;14.95;;;;;;;-1.50;100.00;101572.50;5100393;28;20023;-76
2023/03/15 06:06:12;;;;;;;28.63;14.40;;;;;;;-1.49;100.00;101576.81;5113156;28;20030;-76
2023/03/15 06:08:37;;;;;;;32.58;13.50;;;;;;;-1.45;100.00;101586.31;5108133;28;20417;-76
2023/03/15 06:11:03;;;;;;;35.70;15.27;;;;;;;-1.47;100.00;101582.84;5091652;28;20032;-76
2023/03/15 06:13:28;;;;;;;52.45;16.00;;;;;;;-1.42;100.00;101586.44;5092885;28;20030;-76
2023/03/15 06:15:57;;;;;;;36.42;15.52;;;;;;;-1.33;100.00;101591.91;5109424;28;20012;-76
2023/03/15 06:18:22;;;;;;;33.25;14.98;;;;;;;-1.26;100.00;101587.88;5103446;28;20077;-76
2023/03/15 06:20:47;;;;;;;32.10;15.63;;;;;;;-1.21;100.00;101596.56;5099802;28;20019;-76
2023/03/15 06:23:12;;;;;;;35.90;16.13;;;;;;;-1.17;100.00;101597.59;5108838;28;20042;-76
2023/03/15 06:25:38;;;;;;;37.50;16.23;;;;;;;-1.07;100.00;101610.75;5109000;28;20099;-76
2023/03/15 06:28:03;;;;;;;46.40;15.90;;;;;;;-0.96;100.00;101603.47;5089941;28;20034;-76
2023/03/15 06:30:28;;;;;;;46.42;17.58;;;;;;;-0.81;100.00;101616.81;5097870;28;20036;-76
2023/03/15 06:32:54;;;;;;;45.15;17.77;;;;;;;-0.70;100.00;101617.19;5104798;28;20106;-76
2023/03/15 06:35:20;;;;;;;56.90;19.38;;;;;;;-0.53;100.00;101625.44;5090876;28;20024;-76
2023/03/15 06:37:45;;;;;;;50.75;18.25;;;;;;;-0.42;100.00;101630.94;5090441;28;20061;-76
2023/03/15 06:40:11;;;;;;;51.75;19.52;;;;;;;-0.32;100.00;101635.56;5090446;28;20070;-76
2023/03/15 06:42:38;;;;;;;66.60;20.27;;;;;;;-0.19;100.00;101636.84;5104810;28;20073;-76
2023/03/15 06:45:04;;;;;;;56.10;20.48;;;;;;;-0.13;100.00;101632.78;5100500;28;20023;-76
2023/03/15 06:47:29;;;;;;;52.40;19.58;;;;;;;-0.01;100.00;101645.97;5099579;28;20024;-76
2023/03/15 06:49:55;;;;;;;50.53;19.15;;;;;;;-0.04;100.00;101648.44;5112814;28;20058;-76
2023/03/15 06:52:20;;;;;;;50.75;19.70;;;;;;;-0.04;100.00;101647.56;5112363;28;20489;-76
2023/03/15 06:54:45;;;;;;;49.33;19.58;;;;;;;0.06;100.00;101659.88;5111626;28;20522;-76
2023/03/15 06:57:11;;;;;;;55.47;21.02;;;;;;;0.06;100.00;101661.56;5114431;28;20026;-76
2023/03/15 06:59:36;;;;;;;54.00;20.67;;;;;;;0.12;100.00;101665.19;5103764;28;20426;-76
2023/03/15 07:02:01;;;;;;;59.78;22.23;;;;;;;0.12;100.00;101667.75;5102967;28;20475;-76
2023/03/15 07:04:27;;;;;;;51.35;19.83;;;;;;;0.06;100.00;101662.44;5088157;28;20372;-76
2023/03/15 07:06:52;;;;;;;53.10;20.10;;;;;;;0.05;100.00;101664.97;5087875;28;20027;-76
2023/03/15 07:09:18;;;;;;;55.40;19.90;;;;;;;0.05;100.00;101675.22;5107609;28;20403;-76
2023/03/15 07:11:43;;;;;;;47.58;18.83;;;;;;;0.03;100.00;101687.97;5109836;28;20085;-76
2023/03/15 07:14:09;;;;;;;50.67;20.02;;;;;;;-0.02;100.00;101686.97;5100973;28;20024;-76
2023/03/15 07:16:34;;;;;;;43.88;18.73;;;;;;;-0.07;100.00;101689.34;5115678;28;20047;-76
2023/03/15 07:19:00;;;;;;;55.67;19.25;;;;;;;-0.08;100.00;101695.31;5113376;28;20020;-76
2023/03/15 07:21:26;;;;;;;51.28;20.30;;;;;;;-0.04;100.00;101692.03;5105522;28;20032;-76
2023/03/15 07:23:51;;;;;;;47.72;19.10;;;;;;;0.03;100.00;101698.22;5082828;28;20150;-75
2023/03/15 07:26:16;;;;;;;51.38;19.85;;;;;;;0.09;100.00;101705.25;5115934;28;20019;-75
2023/03/15 07:28:43;;;;;;;53.20;21.77;;;;;;;0.18;100.00;101715.81;5086935;28;20028;-76
2023/03/15 07:31:10;;;;;;;53.17;22.10;;;;;;;0.33;100.00;101718.03;5115660;28;20019;-76
2023/03/15 07:33:36;;;;;;;60.30;22.38;;;;;;;0.41;100.00;101714.00;5091187;28;20025;-76
2023/03/15 07:36:05;;;;;;;58.05;22.48;;;;;;;0.44;100.00;101719.22;5104659;28;20072;-76
2023/03/15 07:38:31;;;;;;;57.58;22.73;;;;;;;0.44;100.00;101719.22;5104912;28;20023;-76
2023/03/15 07:41:00;;;;;;;52.15;21.45;;;;;;;0.39;100.00;101724.22;5112153;28;20016;-76
2023/03/15 07:43:25;;;;;;;56.53;21.65;;;;;;;0.44;100.00;101725.22;5105849;28;20075;-75
2023/03/15 07:45:50;;;;;;;52.13;21.05;;;;;;;0.40;100.00;101722.53;5093178;28;20071;-76
2023/03/15 07:48:16;;;;;;;55.15;21.50;;;;;;;0.40;100.00;101723.41;5110585;28;20020;-76
2023/03/15 07:50:41;;;;;;;55.60;21.80;;;;;;;0.56;100.00;101734.16;5101956;28;20095;-76
2023/03/15 07:53:06;;;;;;;50.60;21.50;;;;;;;0.64;100.00;101736.13;5113878;28;20499;-76
2023/03/15 07:55:33;;;;;;;59.22;22.23;;;;;;;0.73;100.00;101742.38;5109092;28;20027;-75
2023/03/15 07:57:58;;;;;;;55.92;21.58;;;;;;;0.80;100.00;101750.31;5108010;28;20330;-77
2023/03/15 08:00:24;;;;;;;56.13;22.77;;;;;;;0.90;100.00;101759.16;5101634;28;20465;-76
2023/03/15 08:02:49;;;;;;;51.90;21.75;;;;;;;0.96;100.00;101768.75;5114690;28;20143;-76
2023/03/15 08:05:17;;;;;;;55.88;21.85;;;;;;;1.01;100.00;101764.63;5113696;28;20050;-75
2023/03/15 08:07:46;;;;;;;52.42;20.23;;;;;;;1.09;100.00;101768.31;5097388;28;20019;-76
2023/03/15 08:10:12;;;;;;;48.60;20.38;;;;;;;1.13;100.00;101771.00;5099752;28;20356;-76
2023/03/15 08:12:40;;;;;;;49.45;20.40;;;;;;;1.18;100.00;101778.84;5114130;28;20035;-76
2023/03/15 08:15:06;;;;;;;49.42;20.60;;;;;;;1.25;100.00;101779.91;5112209;28;20511;-77
2023/03/15 08:17:32;;;;;;;49.83;20.30;;;;;;;1.32;100.00;101781.81;5110837;28;20075;-76
2023/03/15 08:19:57;;;;;;;43.25;19.42;;;;;;;1.35;100.00;101787.06;5082240;28;20115;-76
2023/03/15 08:22:22;;;;;;;47.85;19.13;;;;;;;1.42;100.00;101788.97;5110167;28;20103;-76
2023/03/15 08:24:49;;;;;;;47.97;20.00;;;;;;;1.46;100.00;101790.78;5113805;28;20430;-76
2023/03/15 08:27:14;;;;;;;43.55;19.63;;;;;;;1.53;100.00;101789.28;5107492;28;20027;-77
2023/03/15 08:29:40;;;;;;;39.20;18.02;;;;;;;1.61;100.00;101795.53;5099620;28;20028;-76
2023/03/15 08:32:06;;;;;;;40.13;18.65;;;;;;;1.69;100.00;101798.28;5107365;28;21100;-76
2023/03/15 08:34:33;;;;;;;36.30;17.85;;;;;;;1.75;100.00;101798.47;5107435;28;20058;-76
2023/03/15 08:36:59;;;;;;;41.45;17.38;;;;;;;1.90;100.00;101808.28;5106037;28;20403;-77
2023/03/15 08:39:24;;;;;;;43.20;17.60;;;;;;;2.02;100.00;101814.63;5106101;28;20108;-77
2023/03/15 08:41:50;;;;;;;35.90;16.83;;;;;;;2.00;100.00;101810.31;5114403;28;20031;-77
2023/03/15 08:44:15;;;;;;;33.50;15.65;;;;;;;1.93;100.00;101814.41;5114056;28;20463;-77
2023/03/15 08:46:40;;;;;;;25.83;14.50;;;;;;;1.82;100.00;101815.81;5098560;28;20039;-77
2023/03/15 08:49:06;;;;;;;28.25;13.60;;;;;;;1.84;100.00;101819.31;5095830;28;20107;-76
2023/03/15 08:51:31;;;;;;;25.05;14.13;;;;;;;1.87;100.00;101822.81;5107691;28;20463;-76
2023/03/15 08:53:56;;;;;;;25.48;13.07;;;;;;;1.96;100.00;101829.03;5105233;28;20457;-76
2023/03/15 08:56:22;;;;;;;22.95;13.20;;;;;;;1.93;100.00;101813.53;5097383;28;20507;-85
2023/03/15 08:58:47;;;;;;;24.98;12.90;;;;;;;1.99;100.00;101823.97;5092474;28;20024;-87
2023/03/15 09:01:13;;;;;;;23.25;12.95;;;;;;;2.03;100.00;101825.81;5093208;28;20051;-85
2023/03/15 09:03:41;;;;;;;24.27;12.63;;;;;;;2.16;100.00;101835.63;5113932;28;20082;-82
2023/03/15 09:06:07;;;;;;;16.33;10.90;;;;;;;2.24;100.00;101833.25;5086056;28;20024;-85
2023/03/15 09:08:32;;;;;;;19.17;10.18;;;;;;;2.20;100.00;101818.56;5090280;28;20145;-87
2023/03/15 09:10:58;;;;;;;19.80;9.32;;;;;;;2.41;100.00;101838.81;5103802;28;20068;-87
2023/03/15 09:13:24;;;;;;;15.65;8.85;;;;;;;2.42;100.00;101828.59;5088840;28;20078;-86
2023/03/15 09:15:51;;;;;;;14.65;6.38;;;;;;;2.35;100.00;101829.22;5095583;28;20509;-87
2023/03/15 09:18:17;;;;;;;16.08;6.45;;;;;;;2.24;100.00;101838.38;5104335;28;20055;-89
2023/03/15 09:20:43;;;;;;;14.38;6.22;;;;;;;2.19;100.00;101843.41;5102217;28;20074;-77
2023/03/15 09:23:08;;;;;;;14.38;7.30;;;;;;;2.36;100.00;101840.41;5090913;28;20759;-77
2023/03/15 09:25:35;;;;;;;15.18;7.13;;;;;;;2.29;100.00;101839.38;5095405;28;20030;-76
2023/03/15 09:28:01;;;;;;;11.55;7.22;;;;;;;2.35;100.00;101839.53;5106517;28;20027;-77
2023/03/15 09:30:27;;;;;;;12.00;7.13;;;;;;;2.36;100.00;101836.13;5093468;28;20370;-77
2023/03/15 09:32:53;;;;;;;12.18;7.82;;;;;;;2.48;100.00;101846.72;5109579;28;20030;-76
2023/03/15 09:35:19;;;;;;;14.52;7.63;;;;;;;2.78;100.00;101836.34;5104947;28;20028;-77
2023/03/15 09:37:46;;;;;;;21.13;8.43;;;;;;;3.04;100.00;101846.38;5100096;28;20424;-76
2023/03/15 09:40:33;;;;;;;19.65;7.43;;;;;;;3.10;100.00;101831.06;5098529;28;20050;-77
2023/03/15 09:43:12;;;;;;;12.15;7.07;;;;;;;3.25;100.00;101833.13;5105246;28;20106;-77
2023/03/15 09:46:18;;;;;;;13.10;7.43;;;;;;;3.32;100.00;101840.16;5095336;28;20028;-77
2023/03/15 09:49:02;;;;;;;12.95;5.32;;;;;;;3.33;100.00;101835.88;5087791;28;20077;-76
2023/03/15 09:51:46;;;;;;;11.90;4.30;;;;;;;3.31;100.00;101838.44;5093685;28;20034;-77
2023/03/15 09:54:16;;;;;;;7.50;3.92;;;;;;;3.33;100.00;101841.03;5113366;28;20025;-76
2023/03/15 09:56:52;;;;;;;10.18;4.15;;;;;;;3.40;100.00;101837.75;5084165;28;20027;-76
2023/03/15 09:59:21;;;;;;;11.45;4.88;;;;;;;3.41;100.00;101849.81;5113505;28;20024;-76
2023/03/15 10:01:49;;;;;;;11.02;4.70;;;;;;;3.66;100.00;101851.19;5112763;28;20027;-78
2023/03/15 10:04:39;;;;;;;15.70;3.88;;;;;;;3.91;100.00;101852.56;5112831;28;20110;-76
2023/03/15 10:07:09;;;;;;;7.60;2.50;;;;;;;4.08;100.00;101855.47;5090367;28;20072;-80
2023/03/15 10:09:34;;;;;;;7.22;3.08;;;;;;;4.19;100.00;101841.94;5091153;28;20506;-76
2023/03/15 10:12:07;;;;;;;11.65;3.65;;;;;;;4.47;100.00;101838.13;5094190;28;20024;-77
2023/03/15 10:14:33;;;;;;;10.98;3.17;;;;;;;4.72;100.00;101843.72;5112995;28;20023;-77
2023/03/15 10:16:59;;;;;;;10.27;3.08;;;;;;;4.95;100.00;101843.25;5111892;28;20176;-77
2023/03/15 10:19:38;;;;;;;8.77;3.28;;;;;;;5.17;100.00;101840.13;5105817;28;20039;-77
2023/03/15 10:22:12;;;;;;;6.60;2.88;;;;;;;5.40;100.00;101841.31;5093692;28;20043;-77
2023/03/15 10:24:53;;;;;;;6.72;3.30;;;;;;;5.54;100.00;101840.66;5103178;28;20031;-77
2023/03/15 10:27:36;;;;;;;21.77;3.75;;;;;;;5.55;100.00;101852.72;5094098;28;20107;-77
2023/03/15 10:30:15;;;;;;;6.00;2.47;;;;;;;5.48;100.00;101845.72;5103141;28;20458;-77
2023/03/15 10:32:43;;;;;;;6.07;2.55;;;;;;;5.44;100.00;101849.13;5116207;28;20114;-78
2023/03/15 10:35:17;;;;;;;7.43;1.95;;;;;;;5.39;100.00;101841.28;5101527;28;20107;-77
2023/03/15 10:37:43;;;;;;;9.50;2.22;;;;;;;5.47;100.00;101844.88;5111290;28;20012;-77
2023/03/15 10:40:17;;;;;;;9.13;2.53;;;;;;;5.66;100.00;101847.69;5098875;28;20489;-77
2023/03/15 10:42:44;;;;;;;5.40;2.13;;;;;;;5.79;100.00;101857.38;5107500;28;20026;-77
2023/03/15 10:45:20;;;;;;;9.60;2.00;;;;;;;5.89;100.00;101848.84;5106172;28;20035;-77
2023/03/15 10:47:47;;;;;;;5.50;1.63;;;;;;;5.86;93.74;101854.84;5116309;28;20028;-77
2023/03/15 10:50:27;;;;;;;6.25;1.75;;;;;;;5.75;98.78;101861.59;5111841;28;20028;-77
2023/03/15 10:52:58;;;;;;;8.45;2.30;;;;;;;5.72;100.00;101861.59;5095083;28;20475;-77
2023/03/15 10:55:38;;;;;;;5.68;2.33;;;;;;;5.49;92.85;101862.97;5103011;28;20453;-77
2023/03/15 10:58:43;;;;;;;11.02;2.25;;;;;;;5.52;100.00;101865.59;5100835;28;20031;-78
2023/03/15 11:01:21;;;;;;;10.27;2.65;;;;;;;5.79;100.00;101878.94;5081893;28;20107;-78
2023/03/15 11:04:19;;;;;;;3.60;1.80;;;;;;;6.02;95.19;101883.56;5104525;28;20108;-78
2023/03/15 11:06:47;;;;;;;13.35;2.28;;;;;;;6.21;91.96;101877.75;5108731;28;20036;-77
2023/03/15 11:09:20;;;;;;;5.18;2.00;;;;;;;6.59;92.62;101885.03;5092292;28;20028;-77
2023/03/15 11:11:56;;;;;;;5.72;1.75;;;;;;;6.91;91.88;101887.03;5109373;28;20520;-78
2023/03/15 11:14:21;;;;;;;6.53;1.58;;;;;;;7.41;91.29;101881.34;5115713;28;20018;-78